Terminal Aerodrome Forecast
Issued by NWS

Home | Current Version | Previous Version | Text Only | Print | Product List | Glossary On
Versions: 1 2 3 4 5 6 7 8 9 10 11 12 13
000
FTUS43 KOAX 042000 AAA
TAFBFF
TAF AMD
KBFF 042000Z 0420/0518 12015KT P6SM VCSH SCT070 OVC090
     FM050400 11008KT 2SM BR OVC010=

USA.gov is the U.S. government's official web portal to all federal, state and local government web resources and services.